SWA3613 KBHM-KMCO
Flight info
| Callsign | SWA3613 |
|---|---|
| Flight time | 1h 7m |
| Altitude | 41000 |
| Route | GUMMP MGMRY DEEDA GRNCH5 |
| Aircraft | B738/M-SADE2E3GIJ4RWZ/LB1D1 |
Departure
| Time | 2026-04-25 13:48 |
|---|---|
| Airport | Birmingham-Shuttlesworth International Airport (KBHM) |
Arrival
| Time | 2026-04-25 14:55 |
|---|---|
| Airport | Orlando International Airport (KMCO) |
| Time | Latitude | Longitude | Altitude | Speed | Heading |
|---|---|---|---|---|---|
| 2026-04-25 13:17 | 33.56392 | -86.75078 | 607 ft | 0 kts | 162° |
| 2026-04-25 13:39 | 33.56411 | -86.75084 | 617 ft | 4 kts | 171° |
| 2026-04-25 13:39 | 33.56438 | -86.75086 | 623 ft | 4 kts | 190° |
| 2026-04-25 13:39 | 33.56461 | -86.75074 | 621 ft | 4 kts | 228° |
| 2026-04-25 13:39 | 33.56466 | -86.75067 | 609 ft | 1 kts | 240° |
| 2026-04-25 13:43 | 33.56457 | -86.75106 | 618 ft | 10 kts | 281° |
| 2026-04-25 13:43 | 33.56492 | -86.75190 | 616 ft | 13 kts | 264° |
| 2026-04-25 13:43 | 33.56434 | -86.75300 | 619 ft | 13 kts | 235° |
| 2026-04-25 13:44 | 33.56362 | -86.75326 | 613 ft | 12 kts | 134° |
| 2026-04-25 13:44 | 33.56397 | -86.75203 | 610 ft | 22 kts | 46° |
| 2026-04-25 13:44 | 33.56532 | -86.75119 | 615 ft | 22 kts | 45° |
| 2026-04-25 13:44 | 33.56599 | -86.74958 | 610 ft | 22 kts | 83° |
| 2026-04-25 13:45 | 33.56642 | -86.74790 | 612 ft | 21 kts | 56° |
| 2026-04-25 13:45 | 33.56731 | -86.74639 | 610 ft | 24 kts | 54° |
| 2026-04-25 13:45 | 33.56836 | -86.74458 | 607 ft | 28 kts | 55° |
| 2026-04-25 13:45 | 33.56950 | -86.74261 | 607 ft | 28 kts | 55° |
| 2026-04-25 13:46 | 33.57058 | -86.74072 | 609 ft | 26 kts | 56° |
| 2026-04-25 13:46 | 33.57159 | -86.73898 | 611 ft | 21 kts | 56° |
| 2026-04-25 13:46 | 33.57243 | -86.73843 | 609 ft | 12 kts | 337° |
| 2026-04-25 13:46 | 33.57267 | -86.73865 | 606 ft | 0 kts | 319° |
| 2026-04-25 13:47 | 33.57282 | -86.73880 | 606 ft | 9 kts | 319° |
| 2026-04-25 13:47 | 33.57310 | -86.73971 | 611 ft | 13 kts | 251° |
| 2026-04-25 13:47 | 33.57262 | -86.74065 | 617 ft | 14 kts | 236° |
| 2026-04-25 13:47 | 33.57086 | -86.74370 | 613 ft | 86 kts | 235° |
| 2026-04-25 13:48 | 33.56595 | -86.75222 | 612 ft | 160 kts | 236° |
| 2026-04-25 13:48 | 33.55906 | -86.76396 | 1310 ft | 175 kts | 233° |
| 2026-04-25 13:48 | 33.55184 | -86.77570 | 2320 ft | 179 kts | 236° |
| 2026-04-25 13:48 | 33.54437 | -86.78858 | 2838 ft | 202 kts | 237° |
| 2026-04-25 13:49 | 33.53601 | -86.80331 | 3235 ft | 220 kts | 237° |
| 2026-04-25 13:49 | 33.52707 | -86.81875 | 3868 ft | 228 kts | 231° |
| 2026-04-25 13:49 | 33.51346 | -86.82861 | 4619 ft | 237 kts | 197° |
| 2026-04-25 13:49 | 33.49650 | -86.82850 | 5192 ft | 257 kts | 172° |
| 2026-04-25 13:50 | 33.47866 | -86.82158 | 5761 ft | 276 kts | 161° |
| 2026-04-25 13:50 | 33.46074 | -86.81250 | 6567 ft | 283 kts | 160° |
| 2026-04-25 13:50 | 33.44256 | -86.80289 | 7388 ft | 288 kts | 159° |
| 2026-04-25 13:50 | 33.42408 | -86.79316 | 8204 ft | 292 kts | 160° |
| 2026-04-25 13:51 | 33.40533 | -86.78339 | 9023 ft | 296 kts | 160° |
| 2026-04-25 13:51 | 33.38624 | -86.77358 | 9796 ft | 302 kts | 160° |
| 2026-04-25 13:51 | 33.36656 | -86.76357 | 10374 ft | 316 kts | 160° |
| 2026-04-25 13:51 | 33.34572 | -86.75307 | 10548 ft | 342 kts | 160° |
| 2026-04-25 13:52 | 33.32320 | -86.74175 | 10955 ft | 357 kts | 160° |
| 2026-04-25 13:52 | 33.30012 | -86.73013 | 11643 ft | 362 kts | 160° |
| 2026-04-25 13:52 | 33.27673 | -86.71837 | 12445 ft | 365 kts | 160° |
| 2026-04-25 13:52 | 33.25312 | -86.70652 | 13195 ft | 371 kts | 160° |
| 2026-04-25 13:53 | 33.22917 | -86.69452 | 13931 ft | 376 kts | 160° |
| 2026-04-25 13:53 | 33.20493 | -86.68239 | 14661 ft | 380 kts | 160° |
| 2026-04-25 13:53 | 33.18036 | -86.67011 | 15405 ft | 384 kts | 160° |
| 2026-04-25 13:53 | 33.15551 | -86.65770 | 16138 ft | 389 kts | 160° |
| 2026-04-25 13:54 | 33.13041 | -86.64516 | 16858 ft | 393 kts | 160° |
| 2026-04-25 13:54 | 33.10499 | -86.63248 | 17555 ft | 398 kts | 160° |
| 2026-04-25 13:54 | 33.07928 | -86.61971 | 18241 ft | 403 kts | 161° |
| 2026-04-25 13:54 | 33.05268 | -86.60869 | 18845 ft | 405 kts | 166° |
| 2026-04-25 13:55 | 33.02562 | -86.59902 | 19493 ft | 408 kts | 167° |
| 2026-04-25 13:55 | 32.99825 | -86.58970 | 20169 ft | 410 kts | 167° |
| 2026-04-25 13:55 | 32.97074 | -86.58039 | 20814 ft | 412 kts | 167° |
| 2026-04-25 13:55 | 32.94307 | -86.57096 | 21423 ft | 416 kts | 167° |
| 2026-04-25 13:56 | 32.91504 | -86.56131 | 22023 ft | 419 kts | 167° |
| 2026-04-25 13:56 | 32.88729 | -86.55168 | 22599 ft | 423 kts | 167° |
| 2026-04-25 13:56 | 32.85900 | -86.54180 | 23169 ft | 426 kts | 166° |
| 2026-04-25 13:56 | 32.83047 | -86.53181 | 23711 ft | 429 kts | 166° |
| 2026-04-25 13:57 | 32.80173 | -86.52174 | 24191 ft | 431 kts | 166° |
| 2026-04-25 13:57 | 32.78261 | -86.51504 | 24506 ft | 433 kts | 166° |
| 2026-04-25 13:57 | 32.74385 | -86.50146 | 25134 ft | 436 kts | 166° |
| 2026-04-25 13:57 | 32.71463 | -86.49124 | 25607 ft | 439 kts | 166° |
| 2026-04-25 13:58 | 32.68527 | -86.48098 | 26070 ft | 441 kts | 166° |
| 2026-04-25 13:58 | 32.65573 | -86.47066 | 26507 ft | 444 kts | 166° |
| 2026-04-25 13:58 | 32.62606 | -86.46031 | 26937 ft | 446 kts | 166° |
| 2026-04-25 13:58 | 32.59617 | -86.44989 | 27367 ft | 449 kts | 166° |
| 2026-04-25 13:59 | 32.56608 | -86.43941 | 27761 ft | 451 kts | 166° |
| 2026-04-25 13:59 | 32.53590 | -86.42890 | 28169 ft | 454 kts | 166° |
| 2026-04-25 13:59 | 32.50554 | -86.41833 | 28564 ft | 456 kts | 166° |
| 2026-04-25 13:59 | 32.47500 | -86.40771 | 28952 ft | 459 kts | 166° |
| 2026-04-25 14:00 | 32.44462 | -86.39715 | 29325 ft | 461 kts | 166° |
| 2026-04-25 14:00 | 32.41382 | -86.38646 | 29689 ft | 464 kts | 166° |
| 2026-04-25 14:00 | 32.38264 | -86.37564 | 30039 ft | 466 kts | 166° |
| 2026-04-25 14:00 | 32.35141 | -86.36481 | 30325 ft | 469 kts | 166° |
| 2026-04-25 14:01 | 32.32001 | -86.35392 | 30632 ft | 471 kts | 166° |
| 2026-04-25 14:01 | 32.28848 | -86.34300 | 30898 ft | 474 kts | 166° |
| 2026-04-25 14:01 | 32.25702 | -86.33083 | 31135 ft | 479 kts | 158° |
| 2026-04-25 14:01 | 32.22822 | -86.31075 | 31409 ft | 485 kts | 143° |
| 2026-04-25 14:02 | 32.20382 | -86.28312 | 31804 ft | 486 kts | 130° |
| 2026-04-25 14:02 | 32.18537 | -86.24997 | 32228 ft | 486 kts | 121° |
| 2026-04-25 14:02 | 32.16863 | -86.21511 | 32592 ft | 486 kts | 120° |
| 2026-04-25 14:02 | 32.16308 | -86.20336 | 32698 ft | 486 kts | 120° |
| 2026-04-25 14:03 | 32.13566 | -86.14526 | 33235 ft | 487 kts | 120° |
| 2026-04-25 14:03 | 32.11903 | -86.11050 | 33650 ft | 485 kts | 120° |
| 2026-04-25 14:03 | 32.10255 | -86.07650 | 34052 ft | 483 kts | 120° |
| 2026-04-25 14:03 | 32.08575 | -86.04217 | 34356 ft | 483 kts | 121° |
| 2026-04-25 14:04 | 32.06887 | -86.00787 | 34610 ft | 484 kts | 121° |
| 2026-04-25 14:04 | 32.05194 | -85.97359 | 34873 ft | 484 kts | 121° |
| 2026-04-25 14:04 | 32.03498 | -85.93929 | 35178 ft | 484 kts | 121° |
| 2026-04-25 14:04 | 32.01805 | -85.90505 | 35487 ft | 483 kts | 121° |
| 2026-04-25 14:05 | 32.00113 | -85.87086 | 35774 ft | 483 kts | 121° |
| 2026-04-25 14:05 | 31.98421 | -85.83669 | 36036 ft | 483 kts | 121° |
| 2026-04-25 14:05 | 31.96725 | -85.80245 | 36303 ft | 483 kts | 121° |
| 2026-04-25 14:05 | 31.95033 | -85.76834 | 36571 ft | 483 kts | 121° |
| 2026-04-25 14:06 | 31.93338 | -85.73416 | 36828 ft | 483 kts | 121° |
| 2026-04-25 14:06 | 31.91639 | -85.69995 | 37071 ft | 484 kts | 121° |
| 2026-04-25 14:06 | 31.89938 | -85.66573 | 37323 ft | 484 kts | 121° |
| 2026-04-25 14:06 | 31.88235 | -85.63150 | 37553 ft | 484 kts | 121° |
| 2026-04-25 14:07 | 31.86536 | -85.59737 | 37791 ft | 485 kts | 121° |
| 2026-04-25 14:07 | 31.84828 | -85.56311 | 38012 ft | 485 kts | 121° |
| 2026-04-25 14:07 | 31.83119 | -85.52886 | 38233 ft | 486 kts | 121° |
| 2026-04-25 14:07 | 31.81407 | -85.49457 | 38467 ft | 486 kts | 121° |
| 2026-04-25 14:08 | 31.79689 | -85.46019 | 38659 ft | 487 kts | 121° |
| 2026-04-25 14:08 | 31.77973 | -85.42589 | 38847 ft | 487 kts | 121° |
| 2026-04-25 14:08 | 31.76257 | -85.39161 | 39040 ft | 487 kts | 121° |
| 2026-04-25 14:08 | 31.74538 | -85.35729 | 39225 ft | 487 kts | 121° |
| 2026-04-25 14:09 | 31.72819 | -85.32303 | 39388 ft | 487 kts | 121° |
| 2026-04-25 14:09 | 31.71100 | -85.28879 | 39566 ft | 487 kts | 121° |
| 2026-04-25 14:09 | 31.69400 | -85.25495 | 39768 ft | 486 kts | 121° |
| 2026-04-25 14:10 | 31.65965 | -85.18667 | 40150 ft | 485 kts | 121° |
| 2026-04-25 14:10 | 31.64250 | -85.15262 | 40324 ft | 485 kts | 121° |
| 2026-04-25 14:10 | 31.62533 | -85.11857 | 40489 ft | 485 kts | 121° |
| 2026-04-25 14:10 | 31.60815 | -85.08452 | 40648 ft | 485 kts | 121° |
| 2026-04-25 14:11 | 31.59100 | -85.05055 | 40834 ft | 484 kts | 121° |
| 2026-04-25 14:11 | 31.57386 | -85.01661 | 40962 ft | 484 kts | 120° |
| 2026-04-25 14:11 | 31.55921 | -84.98100 | 40968 ft | 486 kts | 111° |
| 2026-04-25 14:12 | 31.53665 | -84.90636 | 40975 ft | 484 kts | 108° |
| 2026-04-25 14:12 | 31.51530 | -84.83161 | 40974 ft | 482 kts | 108° |
| 2026-04-25 14:13 | 31.49324 | -84.75759 | 40971 ft | 480 kts | 109° |
| 2026-04-25 14:13 | 31.47069 | -84.68400 | 40964 ft | 478 kts | 109° |
| 2026-04-25 14:14 | 31.44817 | -84.61103 | 40956 ft | 477 kts | 109° |
| 2026-04-25 14:14 | 31.42564 | -84.53810 | 40948 ft | 476 kts | 109° |
| 2026-04-25 14:15 | 31.40692 | -84.47755 | 40953 ft | 475 kts | 109° |
| 2026-04-25 14:15 | 31.38440 | -84.40482 | 40954 ft | 475 kts | 109° |
| 2026-04-25 14:16 | 31.35816 | -84.32027 | 40963 ft | 476 kts | 109° |
| 2026-04-25 14:16 | 31.33916 | -84.25923 | 40958 ft | 477 kts | 109° |
| 2026-04-25 14:17 | 31.31640 | -84.18621 | 40964 ft | 478 kts | 109° |
| 2026-04-25 14:17 | 31.29357 | -84.11312 | 40961 ft | 479 kts | 109° |
| 2026-04-25 14:18 | 31.27075 | -84.04037 | 40959 ft | 480 kts | 109° |
| 2026-04-25 14:18 | 31.24762 | -83.96696 | 40960 ft | 482 kts | 109° |
| 2026-04-25 14:19 | 31.22440 | -83.89339 | 40962 ft | 483 kts | 109° |
| 2026-04-25 14:19 | 31.20110 | -83.81970 | 40961 ft | 483 kts | 109° |
| 2026-04-25 14:20 | 31.17775 | -83.74599 | 40966 ft | 484 kts | 109° |
| 2026-04-25 14:20 | 31.15437 | -83.67237 | 40964 ft | 483 kts | 110° |
| 2026-04-25 14:21 | 31.13096 | -83.59882 | 40959 ft | 483 kts | 110° |
| 2026-04-25 14:21 | 31.10754 | -83.52539 | 40957 ft | 482 kts | 110° |
| 2026-04-25 14:22 | 31.08426 | -83.45259 | 40947 ft | 482 kts | 110° |
| 2026-04-25 14:22 | 31.06085 | -83.37952 | 40953 ft | 480 kts | 110° |
| 2026-04-25 14:23 | 31.03746 | -83.30669 | 40955 ft | 479 kts | 110° |
| 2026-04-25 14:23 | 31.01407 | -83.23405 | 40957 ft | 477 kts | 110° |
| 2026-04-25 14:24 | 30.99077 | -83.16179 | 40955 ft | 476 kts | 110° |
| 2026-04-25 14:24 | 30.96745 | -83.08967 | 40962 ft | 474 kts | 110° |
| 2026-04-25 14:25 | 30.94417 | -83.01779 | 40965 ft | 473 kts | 110° |
| 2026-04-25 14:25 | 30.92090 | -82.94609 | 40972 ft | 473 kts | 110° |
| 2026-04-25 14:26 | 30.89688 | -82.87495 | 40962 ft | 472 kts | 118° |
| 2026-04-25 14:26 | 30.87791 | -82.84386 | 40977 ft | 470 kts | 136° |
| 2026-04-25 14:26 | 30.85315 | -82.81923 | 41000 ft | 468 kts | 143° |
| 2026-04-25 14:27 | 30.80145 | -82.77366 | 40985 ft | 470 kts | 144° |
| 2026-04-25 14:27 | 30.74915 | -82.72772 | 40985 ft | 471 kts | 143° |
| 2026-04-25 14:28 | 30.69711 | -82.68119 | 40993 ft | 473 kts | 143° |
| 2026-04-25 14:28 | 30.64497 | -82.63424 | 40996 ft | 475 kts | 143° |
| 2026-04-25 14:29 | 30.59272 | -82.58721 | 40997 ft | 476 kts | 143° |
| 2026-04-25 14:29 | 30.54022 | -82.54005 | 40995 ft | 477 kts | 143° |
| 2026-04-25 14:30 | 30.48752 | -82.49280 | 40997 ft | 478 kts | 143° |
| 2026-04-25 14:30 | 30.40819 | -82.42182 | 40416 ft | 486 kts | 143° |
| 2026-04-25 14:31 | 30.38150 | -82.39797 | 39973 ft | 480 kts | 142° |
| 2026-04-25 14:31 | 30.35500 | -82.37430 | 39290 ft | 481 kts | 142° |
| 2026-04-25 14:31 | 30.32885 | -82.35096 | 38713 ft | 480 kts | 142° |
| 2026-04-25 14:31 | 30.30240 | -82.32736 | 37983 ft | 479 kts | 142° |
| 2026-04-25 14:32 | 30.27576 | -82.30361 | 37339 ft | 477 kts | 142° |
| 2026-04-25 14:32 | 30.24985 | -82.28053 | 36722 ft | 475 kts | 142° |
| 2026-04-25 14:32 | 30.22367 | -82.25725 | 36087 ft | 474 kts | 143° |
| 2026-04-25 14:32 | 30.19550 | -82.23757 | 35381 ft | 474 kts | 158° |
| 2026-04-25 14:33 | 30.16384 | -82.22750 | 34791 ft | 471 kts | 171° |
| 2026-04-25 14:33 | 30.13150 | -82.22126 | 34080 ft | 472 kts | 172° |
| 2026-04-25 14:33 | 30.09894 | -82.21559 | 33228 ft | 475 kts | 172° |
| 2026-04-25 14:33 | 30.06627 | -82.20982 | 32423 ft | 476 kts | 171° |
| 2026-04-25 14:34 | 30.03363 | -82.20374 | 31846 ft | 472 kts | 171° |
| 2026-04-25 14:34 | 30.00133 | -82.19745 | 31273 ft | 468 kts | 170° |
| 2026-04-25 14:34 | 29.96942 | -82.19112 | 30735 ft | 464 kts | 170° |
| 2026-04-25 14:34 | 29.93768 | -82.18481 | 30186 ft | 460 kts | 170° |
| 2026-04-25 14:35 | 29.90625 | -82.17858 | 29565 ft | 456 kts | 170° |
| 2026-04-25 14:35 | 29.87517 | -82.17240 | 29021 ft | 451 kts | 170° |
| 2026-04-25 14:35 | 29.84439 | -82.16625 | 28447 ft | 446 kts | 170° |
| 2026-04-25 14:35 | 29.81389 | -82.16017 | 27893 ft | 442 kts | 170° |
| 2026-04-25 14:36 | 29.78372 | -82.15415 | 27332 ft | 438 kts | 170° |
| 2026-04-25 14:36 | 29.75378 | -82.14818 | 26797 ft | 435 kts | 170° |
| 2026-04-25 14:36 | 29.72414 | -82.14227 | 26263 ft | 432 kts | 171° |
| 2026-04-25 14:36 | 29.69463 | -82.13640 | 25725 ft | 429 kts | 171° |
| 2026-04-25 14:37 | 29.66545 | -82.13060 | 25190 ft | 426 kts | 171° |
| 2026-04-25 14:37 | 29.63631 | -82.12481 | 24645 ft | 424 kts | 171° |
| 2026-04-25 14:37 | 29.60728 | -82.11904 | 24106 ft | 422 kts | 171° |
| 2026-04-25 14:37 | 29.57840 | -82.11331 | 23558 ft | 421 kts | 171° |
| 2026-04-25 14:38 | 29.54958 | -82.10759 | 22933 ft | 419 kts | 171° |
| 2026-04-25 14:38 | 29.52093 | -82.10192 | 22367 ft | 416 kts | 172° |
| 2026-04-25 14:38 | 29.49256 | -82.09629 | 21824 ft | 412 kts | 172° |
| 2026-04-25 14:38 | 29.46450 | -82.09073 | 21293 ft | 408 kts | 172° |
| 2026-04-25 14:39 | 29.43655 | -82.08520 | 20759 ft | 405 kts | 172° |
| 2026-04-25 14:39 | 29.40883 | -82.07974 | 20235 ft | 402 kts | 172° |
| 2026-04-25 14:39 | 29.38169 | -82.07438 | 19727 ft | 399 kts | 172° |
| 2026-04-25 14:39 | 29.35440 | -82.06899 | 19211 ft | 397 kts | 172° |
| 2026-04-25 14:40 | 29.32730 | -82.06365 | 18708 ft | 394 kts | 172° |
| 2026-04-25 14:40 | 29.30067 | -82.05634 | 18138 ft | 396 kts | 160° |
| 2026-04-25 14:40 | 29.27617 | -82.04201 | 17618 ft | 393 kts | 152° |
| 2026-04-25 14:40 | 29.25247 | -82.02657 | 17077 ft | 390 kts | 151° |
| 2026-04-25 14:41 | 29.22903 | -82.01119 | 16621 ft | 385 kts | 151° |
| 2026-04-25 14:41 | 29.20621 | -81.99651 | 16637 ft | 369 kts | 156° |
| 2026-04-25 14:41 | 29.18158 | -81.98971 | 16671 ft | 369 kts | 177° |
| 2026-04-25 14:41 | 29.15644 | -81.98404 | 16472 ft | 372 kts | 159° |
| 2026-04-25 14:42 | 29.13448 | -81.96825 | 15926 ft | 376 kts | 138° |
| 2026-04-25 14:42 | 29.12796 | -81.96132 | 15741 ft | 376 kts | 136° |
| 2026-04-25 14:42 | 29.09455 | -81.92946 | 14810 ft | 377 kts | 144° |
| 2026-04-25 14:42 | 29.07307 | -81.91241 | 14339 ft | 375 kts | 146° |
| 2026-04-25 14:43 | 29.05262 | -81.89434 | 13874 ft | 373 kts | 137° |
| 2026-04-25 14:43 | 29.03394 | -81.87385 | 13403 ft | 370 kts | 134° |
| 2026-04-25 14:43 | 29.01594 | -81.85351 | 12973 ft | 366 kts | 135° |
| 2026-04-25 14:43 | 28.99811 | -81.83387 | 12559 ft | 362 kts | 136° |
| 2026-04-25 14:44 | 28.98010 | -81.81419 | 12162 ft | 352 kts | 134° |
| 2026-04-25 14:44 | 28.96455 | -81.79347 | 11902 ft | 335 kts | 127° |
| 2026-04-25 14:44 | 28.95570 | -81.78008 | 11753 ft | 324 kts | 126° |
| 2026-04-25 14:44 | 28.94049 | -81.75638 | 11426 ft | 311 kts | 125° |
| 2026-04-25 14:45 | 28.92777 | -81.73676 | 11302 ft | 302 kts | 126° |
| 2026-04-25 14:45 | 28.91521 | -81.71777 | 11085 ft | 297 kts | 127° |
| 2026-04-25 14:45 | 28.90268 | -81.69907 | 10809 ft | 296 kts | 127° |
| 2026-04-25 14:45 | 28.89013 | -81.68044 | 10560 ft | 294 kts | 127° |
| 2026-04-25 14:46 | 28.87767 | -81.66200 | 10307 ft | 293 kts | 127° |
| 2026-04-25 14:46 | 28.86525 | -81.64363 | 10047 ft | 291 kts | 128° |
| 2026-04-25 14:46 | 28.85291 | -81.62538 | 9786 ft | 289 kts | 128° |
| 2026-04-25 14:46 | 28.84067 | -81.60728 | 9521 ft | 287 kts | 128° |
| 2026-04-25 14:47 | 28.82851 | -81.58930 | 9241 ft | 286 kts | 128° |
| 2026-04-25 14:47 | 28.82458 | -81.58350 | 9139 ft | 285 kts | 128° |
| 2026-04-25 14:47 | 28.80451 | -81.55384 | 8673 ft | 283 kts | 128° |
| 2026-04-25 14:47 | 28.79252 | -81.53615 | 8488 ft | 278 kts | 127° |
| 2026-04-25 14:48 | 28.78174 | -81.51830 | 8376 ft | 271 kts | 122° |
| 2026-04-25 14:48 | 28.77173 | -81.50023 | 8149 ft | 268 kts | 122° |
| 2026-04-25 14:48 | 28.76176 | -81.48225 | 7887 ft | 267 kts | 122° |
| 2026-04-25 14:48 | 28.75193 | -81.46467 | 7767 ft | 260 kts | 122° |
| 2026-04-25 14:49 | 28.74230 | -81.44757 | 7648 ft | 253 kts | 123° |
| 2026-04-25 14:49 | 28.73236 | -81.43144 | 7533 ft | 246 kts | 136° |
| 2026-04-25 14:49 | 28.71889 | -81.42009 | 7371 ft | 237 kts | 147° |
| 2026-04-25 14:49 | 28.70510 | -81.40984 | 7074 ft | 236 kts | 147° |
| 2026-04-25 14:50 | 28.69138 | -81.39957 | 6723 ft | 236 kts | 147° |
| 2026-04-25 14:50 | 28.67777 | -81.38931 | 6380 ft | 234 kts | 146° |
| 2026-04-25 14:50 | 28.66450 | -81.37925 | 6048 ft | 232 kts | 146° |
| 2026-04-25 14:50 | 28.65093 | -81.36891 | 5668 ft | 232 kts | 146° |
| 2026-04-25 14:51 | 28.63753 | -81.35869 | 5312 ft | 231 kts | 146° |
| 2026-04-25 14:51 | 28.62424 | -81.34855 | 4976 ft | 229 kts | 146° |
| 2026-04-25 14:51 | 28.61107 | -81.33851 | 4480 ft | 230 kts | 146° |
| 2026-04-25 14:51 | 28.59762 | -81.32905 | 3920 ft | 225 kts | 158° |
| 2026-04-25 14:52 | 28.58239 | -81.32709 | 3402 ft | 218 kts | 182° |
| 2026-04-25 14:52 | 28.56735 | -81.32746 | 2858 ft | 215 kts | 181° |
| 2026-04-25 14:52 | 28.55249 | -81.32766 | 2414 ft | 209 kts | 181° |
| 2026-04-25 14:52 | 28.54780 | -81.32771 | 2355 ft | 204 kts | 181° |
| 2026-04-25 14:53 | 28.52559 | -81.32781 | 1910 ft | 176 kts | 181° |
| 2026-04-25 14:53 | 28.51372 | -81.32769 | 1528 ft | 166 kts | 180° |
| 2026-04-25 14:53 | 28.50261 | -81.32755 | 1153 ft | 155 kts | 180° |
| 2026-04-25 14:53 | 28.49250 | -81.32745 | 966 ft | 144 kts | 180° |
| 2026-04-25 14:54 | 28.48266 | -81.32736 | 784 ft | 140 kts | 180° |
| 2026-04-25 14:54 | 28.47298 | -81.32719 | 636 ft | 141 kts | 181° |
| 2026-04-25 14:54 | 28.46297 | -81.32717 | 421 ft | 145 kts | 180° |
| 2026-04-25 14:54 | 28.45305 | -81.32702 | 251 ft | 139 kts | 180° |
| 2026-04-25 14:55 | 28.44359 | -81.32697 | 107 ft | 130 kts | 179° |
| 2026-04-25 14:55 | 28.43542 | -81.32685 | 98 ft | 102 kts | 179° |
| 2026-04-25 14:55 | 28.42957 | -81.32679 | 101 ft | 67 kts | 179° |
| 2026-04-25 14:55 | 28.42618 | -81.32597 | 99 ft | 41 kts | 127° |
| 2026-04-25 14:56 | 28.42478 | -81.32334 | 101 ft | 37 kts | 120° |
| 2026-04-25 14:56 | 28.42361 | -81.32095 | 104 ft | 34 kts | 110° |
| 2026-04-25 14:56 | 28.42346 | -81.31831 | 99 ft | 34 kts | 89° |
| 2026-04-25 14:56 | 28.42348 | -81.31553 | 96 ft | 36 kts | 89° |
| 2026-04-25 14:57 | 28.42349 | -81.31269 | 93 ft | 35 kts | 94° |
| 2026-04-25 14:57 | 28.42317 | -81.31001 | 93 ft | 33 kts | 92° |
| 2026-04-25 14:57 | 28.42331 | -81.30746 | 97 ft | 31 kts | 86° |
| 2026-04-25 14:57 | 28.42346 | -81.30507 | 95 ft | 30 kts | 86° |
| 2026-04-25 14:58 | 28.42359 | -81.30279 | 95 ft | 28 kts | 87° |
| 2026-04-25 14:58 | 28.42359 | -81.30056 | 96 ft | 30 kts | 90° |
| 2026-04-25 14:58 | 28.42371 | -81.29841 | 94 ft | 23 kts | 66° |
| 2026-04-25 14:58 | 28.42515 | -81.29796 | 96 ft | 26 kts | 0° |
| 2026-04-25 14:59 | 28.42735 | -81.29798 | 94 ft | 34 kts | 359° |
| 2026-04-25 14:59 | 28.42974 | -81.29800 | 95 ft | 34 kts | 359° |
| 2026-04-25 14:59 | 28.43199 | -81.29802 | 94 ft | 25 kts | 360° |
| 2026-04-25 14:59 | 28.43297 | -81.29803 | 94 ft | 16 kts | 355° |
| 2026-04-25 15:00 | 28.43335 | -81.29860 | 97 ft | 0 kts | 259° |
| 2026-04-25 15:00 | 28.43350 | -81.29889 | 94 ft | 10 kts | 332° |
| 2026-04-25 15:00 | 28.43501 | -81.29886 | 95 ft | 33 kts | 359° |
| 2026-04-25 15:01 | 28.43730 | -81.29903 | 95 ft | 33 kts | 338° |
| 2026-04-25 15:01 | 28.43779 | -81.30181 | 94 ft | 30 kts | 234° |
| 2026-04-25 15:01 | 28.43693 | -81.30304 | 93 ft | 29 kts | 232° |
| 2026-04-25 15:01 | 28.43560 | -81.30450 | 94 ft | 25 kts | 198° |
| 2026-04-25 15:02 | 28.43451 | -81.30387 | 96 ft | 11 kts | 93° |
| 2026-04-25 15:02 | 28.43485 | -81.30343 | 94 ft | 4 kts | 35° |
| 2026-04-25 15:02 | 28.43495 | -81.30336 | 95 ft | 1 kts | 35° |
| 2026-04-25 15:02 | 28.43496 | -81.30335 | 94 ft | 0 kts | 35° |